Time;durP1;ratioP1;P1;durP2;ratioP2;P2;SDS_P1;SDS_P2;PMS_P1;PMS_P2;Temp;Humidity;BMP_temperature;BMP_pressure;BME280_temperature;BME280_humidity;BME280_pressure;Samples;Min_cycle;Max_cycle;Signal;HPM_P1;HPM_P2
2021/08/05 00:01:43;;;;;;;;;;;21.40;62.00;;;;;;491585;240;2319;-47
2021/08/05 00:03:44;;;;;;;;;;;21.40;62.00;;;;;;491750;240;1248;-47
2021/08/05 00:05:45;;;;;;;;;;;21.40;61.90;;;;;;491670;240;1031;-47
2021/08/05 00:07:47;;;;;;;;;;;21.40;61.80;;;;;;491961;240;1131;-47
2021/08/05 00:09:48;;;;;;;;;;;21.40;61.80;;;;;;491977;240;1054;-47
2021/08/05 00:11:49;;;;;;;;;;;21.40;61.80;;;;;;491620;240;1147;-47
2021/08/05 00:13:51;;;;;;;;;;;21.50;61.60;;;;;;491520;240;2191;-47
2021/08/05 00:15:52;;;;;;;;;;;21.50;61.60;;;;;;491744;240;1130;-47
2021/08/05 00:17:53;;;;;;;;;;;21.50;61.50;;;;;;491892;240;1027;-47
2021/08/05 00:19:56;;;;;;;;;;;21.50;61.70;;;;;;491650;240;1193;-46
2021/08/05 00:21:57;;;;;;;;;;;21.50;61.70;;;;;;491787;240;1047;-47
2021/08/05 00:23:59;;;;;;;;;;;21.50;61.70;;;;;;492026;240;1051;-47
2021/08/05 00:26:00;;;;;;;;;;;21.60;61.60;;;;;;491558;240;1044;-47
2021/08/05 00:28:03;;;;;;;;;;;21.60;61.50;;;;;;491994;240;1232;-47
2021/08/05 00:30:04;;;;;;;;;;;21.60;61.50;;;;;;492008;240;1078;-47
2021/08/05 00:32:05;;;;;;;;;;;21.60;61.40;;;;;;491693;240;1534;-47
2021/08/05 00:34:07;;;;;;;;;;;21.60;61.40;;;;;;491549;240;2180;-47
2021/08/05 00:36:08;;;;;;;;;;;21.70;61.40;;;;;;491573;240;1162;-47
2021/08/05 00:38:10;;;;;;;;;;;21.60;61.40;;;;;;491627;240;1073;-47
2021/08/05 00:40:11;;;;;;;;;;;21.60;61.40;;;;;;491531;240;1039;-47
2021/08/05 00:42:12;;;;;;;;;;;21.60;62.30;;;;;;491682;240;1281;-47
2021/08/05 00:44:15;;;;;;;;;;;21.60;62.40;;;;;;491548;240;1026;-47
2021/08/05 00:46:16;;;;;;;;;;;21.40;62.90;;;;;;491773;240;1177;-47
2021/08/05 00:48:17;;;;;;;;;;;21.00;64.20;;;;;;491862;240;1089;-47
2021/08/05 00:50:19;;;;;;;;;;;20.70;65.50;;;;;;491544;240;1164;-46
2021/08/05 00:52:20;;;;;;;;;;;20.40;66.40;;;;;;491669;240;1204;-47
2021/08/05 00:54:21;;;;;;;;;;;20.20;67.00;;;;;;491954;240;2144;-46
2021/08/05 00:56:23;;;;;;;;;;;20.10;67.70;;;;;;491834;240;1306;-47
2021/08/05 00:58:24;;;;;;;;;;;19.90;67.90;;;;;;491790;240;1061;-46
2021/08/05 01:00:25;;;;;;;;;;;19.90;68.20;;;;;;492024;240;1067;-47
2021/08/05 01:02:27;;;;;;;;;;;19.80;68.40;;;;;;491512;240;1120;-47
2021/08/05 01:04:28;;;;;;;;;;;19.80;68.70;;;;;;491527;240;1204;-46
2021/08/05 01:06:29;;;;;;;;;;;19.70;68.70;;;;;;492000;240;1139;-46
2021/08/05 01:08:31;;;;;;;;;;;19.70;68.70;;;;;;492060;240;1155;-46
2021/08/05 01:10:32;;;;;;;;;;;19.70;68.90;;;;;;491826;240;1093;-46
2021/08/05 01:12:33;;;;;;;;;;;19.60;69.00;;;;;;491454;240;1197;-47
2021/08/05 01:14:34;;;;;;;;;;;19.60;69.10;;;;;;492021;240;2148;-47
2021/08/05 01:16:36;;;;;;;;;;;19.60;69.20;;;;;;491491;240;1265;-47
2021/08/05 01:18:37;;;;;;;;;;;19.50;69.20;;;;;;491551;240;1115;-46
2021/08/05 01:20:38;;;;;;;;;;;19.50;69.10;;;;;;491542;240;1205;-46
2021/08/05 01:22:40;;;;;;;;;;;19.50;69.30;;;;;;491493;240;1064;-47
2021/08/05 01:24:41;;;;;;;;;;;19.50;69.30;;;;;;491544;240;1103;-47
2021/08/05 01:26:42;;;;;;;;;;;19.40;69.20;;;;;;491696;240;1063;-47
2021/08/05 01:28:44;;;;;;;;;;;19.50;69.20;;;;;;491536;240;1090;-47
2021/08/05 01:30:45;;;;;;;;;;;19.40;69.20;;;;;;491543;240;1137;-47
2021/08/05 01:32:46;;;;;;;;;;;19.40;69.30;;;;;;491648;240;1139;-47
2021/08/05 01:34:48;;;;;;;;;;;19.40;69.40;;;;;;491824;240;2184;-47
2021/08/05 01:36:49;;;;;;;;;;;19.40;69.40;;;;;;491819;240;1039;-46
2021/08/05 01:38:50;;;;;;;;;;;19.40;69.50;;;;;;491601;240;1063;-47
2021/08/05 01:40:52;;;;;;;;;;;19.30;69.50;;;;;;491660;240;1112;-46
2021/08/05 01:42:53;;;;;;;;;;;19.30;69.40;;;;;;491567;240;1178;-47
2021/08/05 01:44:54;;;;;;;;;;;19.30;69.40;;;;;;492023;240;978;-46
2021/08/05 01:46:56;;;;;;;;;;;19.30;69.50;;;;;;491637;240;1202;-47
2021/08/05 01:48:57;;;;;;;;;;;19.30;69.50;;;;;;491493;240;1348;-46
2021/08/05 01:50:58;;;;;;;;;;;19.30;69.50;;;;;;491463;240;1385;-47
2021/08/05 01:53:00;;;;;;;;;;;19.30;69.60;;;;;;491705;240;1058;-47
2021/08/05 01:55:01;;;;;;;;;;;19.20;69.70;;;;;;492037;240;2188;-47
2021/08/05 01:57:02;;;;;;;;;;;19.30;69.70;;;;;;491947;240;1204;-47
2021/08/05 01:59:04;;;;;;;;;;;19.20;69.60;;;;;;491589;240;1080;-47
2021/08/05 02:01:05;;;;;;;;;;;19.20;69.70;;;;;;491540;240;1085;-47
2021/08/05 02:03:06;;;;;;;;;;;19.20;69.60;;;;;;491821;240;1065;-46
2021/08/05 02:05:08;;;;;;;;;;;19.20;69.60;;;;;;491787;240;1171;-47
2021/08/05 02:07:09;;;;;;;;;;;19.20;69.70;;;;;;491674;240;1221;-46
2021/08/05 02:09:10;;;;;;;;;;;19.20;69.80;;;;;;492046;240;1187;-47
2021/08/05 02:11:12;;;;;;;;;;;19.10;69.80;;;;;;491919;240;1200;-47
2021/08/05 02:13:13;;;;;;;;;;;19.20;69.80;;;;;;491779;240;1003;-46
2021/08/05 02:15:14;;;;;;;;;;;19.10;69.80;;;;;;492045;240;2117;-47
2021/08/05 02:17:16;;;;;;;;;;;19.10;69.60;;;;;;491573;240;1049;-47
2021/08/05 02:19:17;;;;;;;;;;;19.10;69.70;;;;;;491804;240;1179;-47
2021/08/05 02:21:18;;;;;;;;;;;19.10;69.80;;;;;;491504;240;1180;-47
2021/08/05 02:23:19;;;;;;;;;;;19.10;69.80;;;;;;491580;240;1129;-47
2021/08/05 02:25:21;;;;;;;;;;;19.10;69.80;;;;;;491552;240;1049;-46
2021/08/05 02:27:22;;;;;;;;;;;19.10;69.80;;;;;;491806;240;1165;-46
2021/08/05 02:29:24;;;;;;;;;;;19.10;69.80;;;;;;491728;240;1056;-47
2021/08/05 02:31:25;;;;;;;;;;;19.10;69.80;;;;;;491737;240;2352;-46
2021/08/05 02:33:26;;;;;;;;;;;19.10;69.90;;;;;;491608;240;1043;-46
2021/08/05 02:35:27;;;;;;;;;;;19.00;69.80;;;;;;491831;240;2121;-47
2021/08/05 02:37:29;;;;;;;;;;;19.00;69.80;;;;;;491875;240;1074;-47
2021/08/05 02:39:30;;;;;;;;;;;19.00;69.90;;;;;;491947;240;1181;-46
2021/08/05 02:41:31;;;;;;;;;;;19.00;69.90;;;;;;491749;240;1072;-46
2021/08/05 02:43:33;;;;;;;;;;;19.10;69.80;;;;;;491725;240;1101;-46
2021/08/05 02:45:34;;;;;;;;;;;19.10;69.90;;;;;;491842;240;1034;-46
2021/08/05 02:47:35;;;;;;;;;;;19.00;69.80;;;;;;492035;240;1068;-46
2021/08/05 02:49:37;;;;;;;;;;;19.00;69.80;;;;;;491833;240;1077;-46
2021/08/05 02:51:38;;;;;;;;;;;19.00;69.80;;;;;;491594;240;1226;-46
2021/08/05 02:53:39;;;;;;;;;;;19.00;69.90;;;;;;491692;240;1052;-46
2021/08/05 02:55:41;;;;;;;;;;;19.00;70.00;;;;;;491771;240;2195;-46
2021/08/05 02:57:42;;;;;;;;;;;19.00;70.00;;;;;;491691;240;1347;-46
2021/08/05 02:59:44;;;;;;;;;;;19.00;70.00;;;;;;491800;240;1062;-46
2021/08/05 03:01:44;;;;;;;;;;;19.00;69.70;;;;;;491621;240;2312;-46
2021/08/05 03:03:46;;;;;;;;;;;19.00;69.90;;;;;;491506;240;1216;-46
2021/08/05 03:05:47;;;;;;;;;;;19.00;70.00;;;;;;491522;240;1184;-47
2021/08/05 03:07:48;;;;;;;;;;;19.00;70.00;;;;;;491639;240;1244;-46
2021/08/05 03:09:50;;;;;;;;;;;19.00;70.00;;;;;;491597;240;1087;-46
2021/08/05 03:11:51;;;;;;;;;;;19.00;69.90;;;;;;491554;240;1188;-46
2021/08/05 03:13:52;;;;;;;;;;;19.00;70.00;;;;;;492015;240;1052;-46
2021/08/05 03:15:54;;;;;;;;;;;19.00;69.90;;;;;;491614;240;2145;-47
2021/08/05 03:17:55;;;;;;;;;;;19.00;70.00;;;;;;491546;240;1041;-47
2021/08/05 03:19:56;;;;;;;;;;;19.00;70.00;;;;;;491957;240;1019;-47
2021/08/05 03:21:58;;;;;;;;;;;18.90;69.90;;;;;;491585;240;1185;-47
2021/08/05 03:23:59;;;;;;;;;;;19.00;69.90;;;;;;491818;240;1164;-46
2021/08/05 03:26:01;;;;;;;;;;;19.00;70.00;;;;;;491550;240;1102;-46
2021/08/05 03:28:02;;;;;;;;;;;18.90;70.00;;;;;;491772;240;1025;-46
2021/08/05 03:30:03;;;;;;;;;;;18.90;70.10;;;;;;491626;240;1246;-47
2021/08/05 03:32:05;;;;;;;;;;;18.90;70.10;;;;;;491463;240;1053;-47
2021/08/05 03:34:06;;;;;;;;;;;18.90;70.10;;;;;;491780;240;1060;-46
2021/08/05 03:36:07;;;;;;;;;;;18.90;70.00;;;;;;491761;240;2203;-46
2021/08/05 03:38:09;;;;;;;;;;;18.90;70.00;;;;;;491656;240;1033;-47
2021/08/05 03:40:10;;;;;;;;;;;18.90;70.10;;;;;;491696;240;1073;-47
2021/08/05 03:42:11;;;;;;;;;;;18.90;70.20;;;;;;491590;240;1206;-46
2021/08/05 03:44:13;;;;;;;;;;;18.90;70.10;;;;;;491586;240;1162;-46
2021/08/05 03:46:14;;;;;;;;;;;18.90;70.10;;;;;;491649;240;1044;-47
2021/08/05 03:48:15;;;;;;;;;;;18.90;70.10;;;;;;492020;240;1023;-47
2021/08/05 03:50:17;;;;;;;;;;;18.90;70.10;;;;;;491746;240;1042;-47
2021/08/05 03:52:18;;;;;;;;;;;18.90;70.00;;;;;;491560;240;1144;-47
2021/08/05 03:54:19;;;;;;;;;;;18.90;70.00;;;;;;491571;240;1090;-47
2021/08/05 03:56:21;;;;;;;;;;;18.90;70.10;;;;;;491899;240;2192;-46
2021/08/05 03:58:22;;;;;;;;;;;18.90;70.00;;;;;;491542;240;1062;-46
2021/08/05 04:00:24;;;;;;;;;;;18.90;70.00;;;;;;491556;240;1126;-46
2021/08/05 04:02:25;;;;;;;;;;;18.90;70.10;;;;;;491905;240;1061;-47
2021/08/05 04:04:26;;;;;;;;;;;18.90;70.20;;;;;;491697;240;1052;-46
2021/08/05 04:06:27;;;;;;;;;;;18.90;70.10;;;;;;491516;240;1122;-46
2021/08/05 04:08:29;;;;;;;;;;;18.90;70.20;;;;;;491550;240;1058;-46
2021/08/05 04:10:30;;;;;;;;;;;18.90;70.10;;;;;;491921;240;1048;-46
2021/08/05 04:12:31;;;;;;;;;;;18.90;70.10;;;;;;491773;240;1078;-46
2021/08/05 04:14:33;;;;;;;;;;;18.90;70.20;;;;;;491521;240;1044;-46
2021/08/05 04:16:34;;;;;;;;;;;18.80;70.10;;;;;;491957;240;2105;-47
2021/08/05 04:18:36;;;;;;;;;;;18.90;70.20;;;;;;491511;240;1077;-46
2021/08/05 04:20:37;;;;;;;;;;;18.80;70.10;;;;;;491568;240;1047;-47
2021/08/05 04:22:38;;;;;;;;;;;18.90;70.20;;;;;;491302;240;1223;-46
2021/08/05 04:24:40;;;;;;;;;;;18.80;70.20;;;;;;491430;240;1225;-47
2021/08/05 04:26:41;;;;;;;;;;;18.80;70.20;;;;;;491530;240;1064;-46
2021/08/05 04:28:43;;;;;;;;;;;18.90;70.30;;;;;;491639;240;1043;-46
2021/08/05 04:30:44;;;;;;;;;;;18.80;70.30;;;;;;491800;240;1072;-46
2021/08/05 04:32:45;;;;;;;;;;;18.80;70.40;;;;;;491559;240;1068;-46
2021/08/05 04:34:48;;;;;;;;;;;18.80;70.30;;;;;;491686;240;1306;-46
2021/08/05 04:36:48;;;;;;;;;;;18.80;70.20;;;;;;491459;240;2196;-47
2021/08/05 04:38:50;;;;;;;;;;;18.80;70.30;;;;;;491451;240;1109;-46
2021/08/05 04:40:51;;;;;;;;;;;18.80;70.30;;;;;;491470;240;1020;-47
2021/08/05 04:42:52;;;;;;;;;;;18.80;70.30;;;;;;491359;240;1076;-47
2021/08/05 04:44:54;;;;;;;;;;;18.80;70.20;;;;;;491781;240;1128;-47
2021/08/05 04:46:55;;;;;;;;;;;18.80;70.20;;;;;;491471;240;1031;-46
2021/08/05 04:48:56;;;;;;;;;;;18.80;70.30;;;;;;491462;240;1163;-46
2021/08/05 04:50:58;;;;;;;;;;;18.80;70.30;;;;;;491814;240;1080;-47
2021/08/05 04:52:59;;;;;;;;;;;18.80;70.30;;;;;;491509;240;1203;-46
2021/08/05 04:55:01;;;;;;;;;;;18.80;70.30;;;;;;491476;240;2179;-47
2021/08/05 04:57:02;;;;;;;;;;;18.80;70.20;;;;;;491502;240;1344;-46
2021/08/05 04:59:03;;;;;;;;;;;18.80;70.30;;;;;;491504;240;1118;-47
2021/08/05 05:01:05;;;;;;;;;;;18.70;70.30;;;;;;491431;240;1029;-47
2021/08/05 05:03:06;;;;;;;;;;;18.80;70.40;;;;;;491545;240;1100;-47
2021/08/05 05:05:07;;;;;;;;;;;18.80;70.40;;;;;;491936;240;1067;-46
2021/08/05 05:07:09;;;;;;;;;;;18.80;70.20;;;;;;491710;240;1533;-47
2021/08/05 05:09:10;;;;;;;;;;;18.80;70.20;;;;;;491511;240;1085;-46
2021/08/05 05:11:11;;;;;;;;;;;18.70;70.30;;;;;;491585;240;1060;-46
2021/08/05 05:13:13;;;;;;;;;;;18.80;70.40;;;;;;491328;240;1218;-46
2021/08/05 05:15:14;;;;;;;;;;;18.70;70.40;;;;;;491559;240;2192;-47
2021/08/05 05:17:15;;;;;;;;;;;18.80;70.30;;;;;;491319;240;1065;-47
2021/08/05 05:19:18;;;;;;;;;;;18.80;70.40;;;;;;491449;240;1077;-46
2021/08/05 05:21:18;;;;;;;;;;;18.80;70.40;;;;;;491319;240;1848;-46
2021/08/05 05:23:19;;;;;;;;;;;18.70;70.30;;;;;;491279;240;1215;-46
2021/08/05 05:25:20;;;;;;;;;;;18.80;70.30;;;;;;491672;240;1071;-46
2021/08/05 05:27:22;;;;;;;;;;;18.70;70.20;;;;;;491305;240;1066;-47
2021/08/05 05:29:23;;;;;;;;;;;18.70;70.20;;;;;;491293;240;1092;-47
2021/08/05 05:31:24;;;;;;;;;;;18.70;70.40;;;;;;491187;240;1127;-46
2021/08/05 05:33:26;;;;;;;;;;;18.60;70.40;;;;;;491275;240;1093;-46
2021/08/05 05:35:27;;;;;;;;;;;18.70;70.50;;;;;;491485;240;2208;-47
2021/08/05 05:37:28;;;;;;;;;;;18.70;70.50;;;;;;491157;240;1111;-47
2021/08/05 05:39:30;;;;;;;;;;;18.70;70.50;;;;;;491277;240;1169;-46
2021/08/05 05:41:31;;;;;;;;;;;18.70;70.40;;;;;;491271;240;1067;-46
2021/08/05 05:43:32;;;;;;;;;;;18.70;70.40;;;;;;491250;240;1122;-47
2021/08/05 05:45:34;;;;;;;;;;;18.80;70.20;;;;;;491339;240;1072;-47
2021/08/05 05:47:35;;;;;;;;;;;19.10;68.90;;;;;;491123;240;1087;-47
2021/08/05 05:49:37;;;;;;;;;;;19.40;67.80;;;;;;491171;240;1194;-47
2021/08/05 05:51:38;;;;;;;;;;;19.70;66.90;;;;;;491176;240;1131;-47
2021/08/05 05:53:39;;;;;;;;;;;19.90;66.20;;;;;;491194;240;1195;-46
2021/08/05 05:55:41;;;;;;;;;;;20.00;65.70;;;;;;491099;240;2180;-47
2021/08/05 05:57:42;;;;;;;;;;;20.10;65.30;;;;;;491117;240;1035;-47
2021/08/05 05:59:43;;;;;;;;;;;20.20;65.00;;;;;;491308;240;1225;-47
2021/08/05 06:01:45;;;;;;;;;;;20.30;64.70;;;;;;491151;240;1049;-46
2021/08/05 06:03:46;;;;;;;;;;;20.30;64.40;;;;;;491237;240;1069;-47
2021/08/05 06:05:47;;;;;;;;;;;20.40;64.20;;;;;;491265;240;1188;-47
2021/08/05 06:07:49;;;;;;;;;;;20.40;64.10;;;;;;491411;240;1176;-47
2021/08/05 06:09:50;;;;;;;;;;;20.50;63.80;;;;;;491246;240;1521;-47
2021/08/05 06:11:51;;;;;;;;;;;20.60;63.70;;;;;;491258;240;1261;-47
2021/08/05 06:13:53;;;;;;;;;;;20.60;63.60;;;;;;491207;240;1054;-46
2021/08/05 06:15:54;;;;;;;;;;;20.70;63.50;;;;;;491415;240;2176;-47
2021/08/05 06:17:55;;;;;;;;;;;20.70;63.40;;;;;;491079;240;1123;-47
2021/08/05 06:19:57;;;;;;;;;;;20.70;63.40;;;;;;491091;240;1074;-47
2021/08/05 06:21:58;;;;;;;;;;;20.70;63.30;;;;;;491037;240;1226;-47
2021/08/05 06:24:00;;;;;;;;;;;20.70;63.20;;;;;;491126;240;1166;-47
2021/08/05 06:26:01;;;;;;;;;;;20.80;63.20;;;;;;490978;240;1342;-47
2021/08/05 06:28:02;;;;;;;;;;;20.80;63.10;;;;;;490908;240;1085;-47
2021/08/05 06:30:04;;;;;;;;;;;20.80;63.00;;;;;;490865;240;1171;-47
2021/08/05 06:32:06;;;;;;;;;;;20.80;63.00;;;;;;491291;240;1215;-47
2021/08/05 06:34:06;;;;;;;;;;;20.80;62.90;;;;;;491226;240;2181;-47
2021/08/05 06:36:08;;;;;;;;;;;20.90;62.90;;;;;;491316;240;2191;-47
2021/08/05 06:38:09;;;;;;;;;;;20.90;62.70;;;;;;491035;240;1209;-46
2021/08/05 06:40:10;;;;;;;;;;;21.00;62.70;;;;;;491013;240;1099;-47
2021/08/05 06:42:12;;;;;;;;;;;21.00;62.70;;;;;;490776;240;1088;-47
2021/08/05 06:44:13;;;;;;;;;;;21.00;62.70;;;;;;490945;240;1237;-47
2021/08/05 06:46:14;;;;;;;;;;;21.00;62.50;;;;;;490935;240;1137;-47
2021/08/05 06:48:16;;;;;;;;;;;21.00;62.50;;;;;;491134;240;1180;-46
2021/08/05 06:50:17;;;;;;;;;;;21.00;62.40;;;;;;490973;240;1152;-47
2021/08/05 06:52:18;;;;;;;;;;;21.10;62.40;;;;;;490711;240;1399;-47
2021/08/05 06:54:20;;;;;;;;;;;21.10;62.20;;;;;;490844;240;1247;-47
2021/08/05 06:56:21;;;;;;;;;;;21.20;62.10;;;;;;490896;240;2149;-47
2021/08/05 06:58:22;;;;;;;;;;;21.10;62.10;;;;;;491036;240;1181;-47
2021/08/05 07:00:24;;;;;;;;;;;21.10;62.10;;;;;;491143;240;1349;-47
2021/08/05 07:02:25;;;;;;;;;;;21.20;62.10;;;;;;491019;240;1335;-46
2021/08/05 07:04:26;;;;;;;;;;;21.20;62.10;;;;;;490863;240;1142;-47
2021/08/05 07:06:28;;;;;;;;;;;21.20;62.00;;;;;;490888;240;1195;-47
2021/08/05 07:08:29;;;;;;;;;;;21.20;61.90;;;;;;490814;240;1225;-47
2021/08/05 07:10:30;;;;;;;;;;;21.30;61.90;;;;;;490809;240;1057;-47
2021/08/05 07:12:32;;;;;;;;;;;21.30;61.80;;;;;;490808;240;1381;-47
2021/08/05 07:14:33;;;;;;;;;;;21.30;61.80;;;;;;490984;240;1103;-46
2021/08/05 07:16:34;;;;;;;;;;;21.30;61.80;;;;;;490828;240;2204;-47
2021/08/05 07:18:36;;;;;;;;;;;21.40;61.70;;;;;;490800;240;1233;-47
2021/08/05 07:20:37;;;;;;;;;;;21.40;61.70;;;;;;490816;240;1174;-47
2021/08/05 07:22:40;;;;;;;;;;;21.40;61.80;;;;;;490969;240;1097;-47
2021/08/05 07:24:40;;;;;;;;;;;21.40;61.60;;;;;;490920;240;1912;-47
2021/08/05 07:26:42;;;;;;;;;;;21.40;61.40;;;;;;490943;240;1241;-47
2021/08/05 07:28:43;;;;;;;;;;;21.40;61.40;;;;;;491156;240;1093;-47
2021/08/05 07:30:45;;;;;;;;;;;21.50;61.60;;;;;;490990;240;1103;-47
2021/08/05 07:32:46;;;;;;;;;;;21.40;61.60;;;;;;490883;240;1179;-47
2021/08/05 07:34:47;;;;;;;;;;;21.40;61.50;;;;;;490835;240;1128;-47
2021/08/05 07:36:48;;;;;;;;;;;21.40;61.50;;;;;;490725;240;2240;-47
2021/08/05 07:38:50;;;;;;;;;;;21.40;61.50;;;;;;490697;240;1159;-47
2021/08/05 07:40:51;;;;;;;;;;;21.50;61.50;;;;;;490686;240;1192;-47
2021/08/05 07:42:53;;;;;;;;;;;21.50;61.50;;;;;;490477;240;1130;-47
2021/08/05 07:44:54;;;;;;;;;;;21.50;61.50;;;;;;490713;240;1128;-47
2021/08/05 07:46:55;;;;;;;;;;;21.50;61.50;;;;;;490868;240;1070;-47
2021/08/05 07:48:56;;;;;;;;;;;21.50;61.60;;;;;;490873;240;1209;-47
2021/08/05 07:50:58;;;;;;;;;;;21.50;61.50;;;;;;490905;240;1118;-46
2021/08/05 07:52:59;;;;;;;;;;;21.50;61.50;;;;;;490809;240;1182;-47
2021/08/05 07:55:03;;;;;;;;;;;21.60;61.40;;;;;;490901;240;1229;-47
2021/08/05 07:57:02;;;;;;;;;;;21.60;61.10;;;;;;490922;240;2275;-47
2021/08/05 07:59:04;;;;;;;;;;;21.60;61.10;;;;;;490873;240;1141;-47
2021/08/05 08:01:05;;;;;;;;;;;21.70;61.10;;;;;;490879;240;1077;-47
2021/08/05 08:03:08;;;;;;;;;;;21.60;61.20;;;;;;490925;240;1212;-47
2021/08/05 08:05:08;;;;;;;;;;;21.60;61.30;;;;;;491036;240;1951;-47
2021/08/05 08:07:09;;;;;;;;;;;21.60;61.40;;;;;;490845;240;1211;-47
2021/08/05 08:09:10;;;;;;;;;;;21.60;61.20;;;;;;490883;240;1176;-46
2021/08/05 08:11:12;;;;;;;;;;;21.60;61.20;;;;;;490804;240;1168;-47
2021/08/05 08:13:13;;;;;;;;;;;21.70;61.30;;;;;;490733;240;1229;-47
2021/08/05 08:15:14;;;;;;;;;;;21.70;61.10;;;;;;490783;240;1080;-47
2021/08/05 08:17:16;;;;;;;;;;;21.70;61.10;;;;;;490763;240;2196;-47
2021/08/05 08:19:17;;;;;;;;;;;21.70;61.30;;;;;;490870;240;1772;-47
2021/08/05 08:21:19;;;;;;;;;;;21.70;61.30;;;;;;490836;240;1146;-47
2021/08/05 08:23:20;;;;;;;;;;;21.60;62.10;;;;;;490687;240;1354;-47
2021/08/05 08:25:21;;;;;;;;;;;21.60;62.30;;;;;;490849;240;1168;-47
2021/08/05 08:27:22;;;;;;;;;;;21.30;63.10;;;;;;490819;240;1128;-47
2021/08/05 08:29:24;;;;;;;;;;;21.00;64.50;;;;;;490826;240;1114;-46
2021/08/05 08:31:25;;;;;;;;;;;20.60;65.60;;;;;;490875;240;1307;-47
2021/08/05 08:33:26;;;;;;;;;;;20.40;66.50;;;;;;490939;240;1142;-47
2021/08/05 08:35:29;;;;;;;;;;;20.20;67.10;;;;;;490774;240;1213;-46
2021/08/05 08:37:30;;;;;;;;;;;20.10;67.50;;;;;;490780;240;2199;-46
2021/08/05 08:39:32;;;;;;;;;;;20.00;67.80;;;;;;490773;240;1228;-47
2021/08/05 08:41:34;;;;;;;;;;;19.90;68.00;;;;;;490692;240;1102;-46
2021/08/05 08:43:35;;;;;;;;;;;19.80;68.30;;;;;;490743;240;1306;-47
2021/08/05 08:45:37;;;;;;;;;;;19.70;68.50;;;;;;490607;240;1068;-46
2021/08/05 08:47:37;;;;;;;;;;;19.70;68.60;;;;;;490765;240;1153;-46
2021/08/05 08:49:39;;;;;;;;;;;19.70;68.70;;;;;;490769;240;1064;-47
2021/08/05 08:51:40;;;;;;;;;;;19.70;68.70;;;;;;490697;240;1173;-47
2021/08/05 08:53:41;;;;;;;;;;;19.60;68.80;;;;;;490684;240;1128;-47
2021/08/05 08:55:43;;;;;;;;;;;19.60;68.90;;;;;;490705;240;1152;-46
2021/08/05 08:57:44;;;;;;;;;;;19.60;69.00;;;;;;490767;240;2145;-46
2021/08/05 08:59:46;;;;;;;;;;;19.50;69.10;;;;;;490771;240;1193;-46
2021/08/05 09:01:47;;;;;;;;;;;19.50;69.10;;;;;;490759;240;1327;-46
2021/08/05 09:03:48;;;;;;;;;;;19.50;69.10;;;;;;490792;240;1068;-46
2021/08/05 09:05:50;;;;;;;;;;;19.50;69.10;;;;;;490760;240;1288;-46
2021/08/05 09:07:51;;;;;;;;;;;19.40;69.10;;;;;;490849;240;1060;-46
2021/08/05 09:09:52;;;;;;;;;;;19.40;69.20;;;;;;490766;240;1395;-45
2021/08/05 09:11:54;;;;;;;;;;;19.40;69.20;;;;;;490681;240;1310;-46
2021/08/05 09:13:55;;;;;;;;;;;19.40;69.30;;;;;;490769;240;1200;-46
2021/08/05 09:15:56;;;;;;;;;;;19.30;69.40;;;;;;490727;240;1136;-46
2021/08/05 09:17:58;;;;;;;;;;;19.30;69.30;;;;;;490725;240;2228;-46
2021/08/05 09:19:59;;;;;;;;;;;19.40;69.50;;;;;;490735;240;1044;-45
2021/08/05 09:22:01;;;;;;;;;;;19.30;69.40;;;;;;490819;240;1301;-46
2021/08/05 09:24:04;;;;;;;;;;;19.30;69.40;;;;;;490799;240;1483;-46
2021/08/05 09:26:03;;;;;;;;;;;19.30;69.50;;;;;;490844;240;2098;-45
2021/08/05 09:28:04;;;;;;;;;;;19.30;69.60;;;;;;490941;240;1166;-46
2021/08/05 09:30:06;;;;;;;;;;;19.30;69.50;;;;;;491152;240;1083;-45
2021/08/05 09:32:07;;;;;;;;;;;19.20;69.60;;;;;;490884;240;1246;-45
2021/08/05 09:34:08;;;;;;;;;;;19.20;69.60;;;;;;490960;240;1189;-46
2021/08/05 09:36:10;;;;;;;;;;;19.20;69.60;;;;;;490737;240;1236;-46
2021/08/05 09:38:11;;;;;;;;;;;19.20;69.60;;;;;;490793;240;2136;-46
2021/08/05 09:40:12;;;;;;;;;;;19.20;69.60;;;;;;490765;240;1162;-45
2021/08/05 09:42:14;;;;;;;;;;;19.20;69.70;;;;;;490640;240;1081;-45
2021/08/05 09:44:15;;;;;;;;;;;19.20;69.70;;;;;;490644;240;1127;-45
2021/08/05 09:46:17;;;;;;;;;;;19.20;69.70;;;;;;490718;240;1121;-45
2021/08/05 09:48:18;;;;;;;;;;;19.20;69.70;;;;;;490882;240;1088;-46
2021/08/05 09:50:19;;;;;;;;;;;19.10;69.70;;;;;;490680;240;1097;-46
2021/08/05 09:52:20;;;;;;;;;;;19.10;69.80;;;;;;490677;240;1068;-46
2021/08/05 09:54:22;;;;;;;;;;;19.10;69.60;;;;;;490727;240;1065;-45
2021/08/05 09:56:23;;;;;;;;;;;19.10;69.70;;;;;;490653;240;1308;-45
2021/08/05 09:58:24;;;;;;;;;;;19.10;69.70;;;;;;490825;240;2175;-45
2021/08/05 10:00:26;;;;;;;;;;;19.10;69.80;;;;;;490690;240;1064;-46
2021/08/05 10:02:27;;;;;;;;;;;19.10;69.70;;;;;;490747;240;1207;-45
2021/08/05 10:04:28;;;;;;;;;;;19.10;69.70;;;;;;490798;240;1157;-46
2021/08/05 10:06:30;;;;;;;;;;;19.10;69.80;;;;;;490605;240;1138;-45
2021/08/05 10:08:31;;;;;;;;;;;19.10;69.90;;;;;;490691;240;1068;-45
2021/08/05 10:10:32;;;;;;;;;;;19.00;69.90;;;;;;490657;240;1148;-46
2021/08/05 10:12:34;;;;;;;;;;;19.10;70.00;;;;;;490804;240;1141;-46
2021/08/05 10:14:35;;;;;;;;;;;19.00;69.90;;;;;;490803;240;1037;-45
2021/08/05 10:16:36;;;;;;;;;;;19.00;69.90;;;;;;490787;240;1073;-45
2021/08/05 10:18:38;;;;;;;;;;;19.00;69.90;;;;;;490789;240;2180;-45
2021/08/05 10:20:39;;;;;;;;;;;19.00;70.00;;;;;;490781;240;1105;-46
2021/08/05 10:22:40;;;;;;;;;;;19.00;70.10;;;;;;490688;240;1079;-46
2021/08/05 10:24:42;;;;;;;;;;;19.00;70.00;;;;;;490684;240;1041;-46
2021/08/05 10:26:43;;;;;;;;;;;19.00;70.10;;;;;;490742;240;1143;-45
2021/08/05 10:28:44;;;;;;;;;;;19.00;70.00;;;;;;490780;240;1097;-45
2021/08/05 10:30:46;;;;;;;;;;;19.00;70.10;;;;;;490856;240;1311;-45
2021/08/05 10:32:47;;;;;;;;;;;19.00;70.00;;;;;;490917;240;1066;-46
2021/08/05 10:34:48;;;;;;;;;;;19.00;70.00;;;;;;490728;240;1198;-45
2021/08/05 10:36:50;;;;;;;;;;;19.00;70.00;;;;;;490747;240;1122;-45
2021/08/05 10:38:51;;;;;;;;;;;19.00;70.00;;;;;;490638;240;2326;-45
2021/08/05 10:40:54;;;;;;;;;;;19.00;70.10;;;;;;490725;240;1238;-45
2021/08/05 10:42:55;;;;;;;;;;;19.00;70.10;;;;;;491034;240;2189;-46
2021/08/05 10:44:55;;;;;;;;;;;19.00;70.00;;;;;;490763;240;2234;-46
2021/08/05 10:46:57;;;;;;;;;;;19.00;70.00;;;;;;490827;240;1175;-46
2021/08/05 10:48:58;;;;;;;;;;;18.90;69.90;;;;;;490603;240;1125;-45
2021/08/05 10:50:59;;;;;;;;;;;18.90;70.00;;;;;;490702;240;1114;-45
2021/08/05 10:53:01;;;;;;;;;;;18.90;70.00;;;;;;490743;240;1161;-46
2021/08/05 10:55:02;;;;;;;;;;;18.90;70.10;;;;;;490699;240;1181;-46
2021/08/05 10:57:03;;;;;;;;;;;18.90;70.10;;;;;;490789;240;1219;-46
2021/08/05 10:59:04;;;;;;;;;;;18.90;70.00;;;;;;491047;240;2184;-46
2021/08/05 11:01:06;;;;;;;;;;;18.90;70.00;;;;;;490907;240;1202;-46
2021/08/05 11:03:07;;;;;;;;;;;18.90;69.90;;;;;;490925;240;1145;-46
2021/08/05 11:05:08;;;;;;;;;;;18.90;70.10;;;;;;490756;240;1102;-46
2021/08/05 11:07:10;;;;;;;;;;;18.90;70.20;;;;;;490908;240;1160;-45
2021/08/05 11:09:11;;;;;;;;;;;18.90;70.10;;;;;;490984;240;1104;-45
2021/08/05 11:11:12;;;;;;;;;;;18.90;70.10;;;;;;491026;240;1166;-46
2021/08/05 11:13:15;;;;;;;;;;;18.90;70.00;;;;;;490815;240;1071;-45
2021/08/05 11:15:16;;;;;;;;;;;18.90;70.00;;;;;;491048;240;2357;-45
2021/08/05 11:17:17;;;;;;;;;;;18.90;70.00;;;;;;490796;240;2192;-46
2021/08/05 11:19:18;;;;;;;;;;;18.90;70.10;;;;;;490869;240;1440;-45
2021/08/05 11:21:20;;;;;;;;;;;18.80;70.10;;;;;;490753;240;1104;-45
2021/08/05 11:23:21;;;;;;;;;;;18.90;70.20;;;;;;490947;240;1212;-45
2021/08/05 11:25:22;;;;;;;;;;;18.90;70.10;;;;;;491004;240;1296;-45
2021/08/05 11:27:24;;;;;;;;;;;18.90;70.00;;;;;;490651;240;1197;-45
2021/08/05 11:29:25;;;;;;;;;;;18.90;70.00;;;;;;490696;240;1175;-46
2021/08/05 11:31:26;;;;;;;;;;;18.90;70.10;;;;;;490761;240;1120;-46
2021/08/05 11:33:28;;;;;;;;;;;18.90;70.10;;;;;;490673;240;1438;-46
2021/08/05 11:35:29;;;;;;;;;;;18.90;70.10;;;;;;490633;240;1268;-46
2021/08/05 11:37:30;;;;;;;;;;;18.80;70.20;;;;;;490778;240;2208;-46
2021/08/05 11:39:32;;;;;;;;;;;18.80;70.20;;;;;;490755;240;1334;-45
2021/08/05 11:41:33;;;;;;;;;;;18.80;70.20;;;;;;490873;240;1305;-45
2021/08/05 11:43:34;;;;;;;;;;;18.80;70.20;;;;;;491002;240;1207;-46
2021/08/05 11:45:36;;;;;;;;;;;18.80;70.20;;;;;;490910;240;1222;-45
2021/08/05 11:47:38;;;;;;;;;;;18.80;70.20;;;;;;490821;240;1167;-45
2021/08/05 11:49:39;;;;;;;;;;;18.80;70.10;;;;;;490792;240;1124;-45
2021/08/05 11:51:40;;;;;;;;;;;18.90;70.20;;;;;;490880;240;1143;-45
2021/08/05 11:53:42;;;;;;;;;;;18.80;70.20;;;;;;490798;240;1116;-46
2021/08/05 11:55:47;;;;;;;;;;;18.80;70.20;;;;;;490787;240;1083;-46
2021/08/05 11:57:44;;;;;;;;;;;18.80;70.30;;;;;;490743;240;2187;-45